Time;durP1;ratioP1;P1;durP2;ratioP2;P2;SDS_P1;SDS_P2;PMS_P1;PMS_P2;Temp;Humidity;BMP_temperature;BMP_pressure;BME280_temperature;BME280_humidity;BME280_pressure;Samples;Min_cycle;Max_cycle;Signal;HPM_P1;HPM_P2
2022/03/11 00:02:15;;;;;;;16.23;7.13;;;9.50;52.30;;;;;;5035155;28;20451;-68
2022/03/11 00:04:41;;;;;;;10.30;7.17;;;9.40;52.40;;;;;;5037473;28;20403;-68
2022/03/11 00:07:07;;;;;;;9.93;7.07;;;9.40;52.50;;;;;;5036308;28;20195;-69
2022/03/11 00:09:34;;;;;;;7.60;6.80;;;9.40;52.50;;;;;;5035578;28;20171;-69
2022/03/11 00:11:59;;;;;;;9.33;7.70;;;9.40;52.60;;;;;;5028480;28;20465;-70
2022/03/11 00:14:25;;;;;;;9.90;7.73;;;9.40;52.70;;;;;;5016552;28;20413;-69
2022/03/11 00:16:50;;;;;;;7.43;6.60;;;9.40;52.60;;;;;;5014585;28;20175;-72
2022/03/11 00:19:16;;;;;;;8.47;6.87;;;9.40;52.50;;;;;;5014782;28;20180;-69
2022/03/11 00:21:41;;;;;;;7.83;7.03;;;9.40;52.70;;;;;;5014802;28;20688;-69
2022/03/11 00:24:07;;;;;;;11.83;7.70;;;9.40;52.90;;;;;;5015532;28;20171;-70
2022/03/11 00:26:34;;;;;;;8.23;7.30;;;9.40;52.90;;;;;;5015754;28;20178;-70
2022/03/11 00:29:00;;;;;;;9.37;6.87;;;9.40;53.10;;;;;;5014217;28;20167;-69
2022/03/11 00:31:27;;;;;;;8.73;7.27;;;9.40;53.20;;;;;;5013978;28;20469;-70
2022/03/11 00:33:53;;;;;;;9.20;7.77;;;9.30;53.20;;;;;;5015187;28;20502;-70
2022/03/11 00:36:19;;;;;;;8.80;7.33;;;9.30;53.50;;;;;;5014757;28;20485;-71
2022/03/11 00:38:44;;;;;;;11.77;8.40;;;9.30;53.60;;;;;;5030577;28;20229;-70
2022/03/11 00:41:10;;;;;;;11.90;7.87;;;9.30;53.60;;;;;;5014408;28;20469;-69
2022/03/11 00:43:35;;;;;;;10.23;7.27;;;9.30;53.70;;;;;;5015118;28;20657;-70
2022/03/11 00:46:01;;;;;;;10.53;8.07;;;9.20;53.80;;;;;;5013826;28;20171;-70
2022/03/11 00:48:26;;;;;;;11.70;7.30;;;9.20;53.90;;;;;;5014047;28;20199;-70
2022/03/11 00:50:53;;;;;;;10.70;8.17;;;9.20;54.10;;;;;;5013809;28;20234;-70
2022/03/11 00:53:19;;;;;;;8.30;7.30;;;9.20;54.40;;;;;;5028678;28;20296;-70
2022/03/11 00:55:44;;;;;;;9.00;7.33;;;9.20;54.20;;;;;;5013548;28;20848;-68
2022/03/11 00:58:10;;;;;;;8.80;7.20;;;9.20;54.30;;;;;;5014046;28;20202;-70
2022/03/11 01:00:35;;;;;;;10.20;7.17;;;9.20;54.30;;;;;;5013660;28;20559;-70
2022/03/11 01:03:01;;;;;;;10.77;7.30;;;9.10;54.90;;;;;;5013641;28;20179;-70
2022/03/11 01:05:26;;;;;;;10.10;8.27;;;9.10;54.50;;;;;;5031134;28;20177;-70
2022/03/11 01:07:53;;;;;;;9.47;7.23;;;9.10;54.50;;;;;;5012431;28;20217;-70
2022/03/11 01:10:19;;;;;;;9.67;7.27;;;9.10;54.50;;;;;;5014056;28;20207;-68
2022/03/11 01:12:45;;;;;;;11.40;7.30;;;9.10;54.70;;;;;;5013732;28;20425;-69
2022/03/11 01:15:11;;;;;;;10.37;8.13;;;9.10;54.80;;;;;;5029804;28;20406;-68
2022/03/11 01:17:37;;;;;;;9.90;7.60;;;9.10;54.90;;;;;;5036213;28;20445;-69
2022/03/11 01:20:05;;;;;;;11.30;7.70;;;9.10;54.90;;;;;;5035664;28;20409;-69
2022/03/11 01:22:31;;;;;;;8.83;7.63;;;9.00;55.00;;;;;;5035635;28;20437;-70
2022/03/11 01:24:57;;;;;;;8.17;7.30;;;8.90;55.30;;;;;;5032572;28;20512;-68
2022/03/11 01:27:23;;;;;;;8.50;7.60;;;8.90;55.50;;;;;;5017943;28;20493;-69
2022/03/11 01:29:48;;;;;;;9.93;7.20;;;8.90;55.60;;;;;;5012984;28;20639;-68
2022/03/11 01:32:14;;;;;;;8.10;7.10;;;8.90;55.80;;;;;;5051443;22;20239;-70
2022/03/11 01:34:40;;;;;;;12.60;7.60;;;8.90;55.80;;;;;;5051854;28;20177;-70
2022/03/11 01:37:05;;;;;;;10.70;7.23;;;8.90;55.90;;;;;;5051794;28;20907;-70
2022/03/11 01:39:31;;;;;;;11.40;7.97;;;8.90;56.00;;;;;;5051802;28;20644;-71
2022/03/11 01:41:57;;;;;;;9.93;7.33;;;8.80;56.50;;;;;;5051411;28;20532;-69
2022/03/11 01:44:25;;;;;;;11.97;8.60;;;8.70;56.50;;;;;;5050406;28;20202;-70
2022/03/11 01:46:51;;;;;;;11.23;7.90;;;8.60;56.50;;;;;;5051605;28;20624;-69
2022/03/11 01:49:16;;;;;;;9.07;7.17;;;8.60;56.80;;;;;;5051652;28;20400;-69
2022/03/11 01:51:42;;;;;;;11.70;7.87;;;8.60;57.00;;;;;;5051460;28;20617;-69
2022/03/11 01:54:09;;;;;;;9.73;7.57;;;8.60;57.10;;;;;;5051608;28;20169;-71
2022/03/11 01:56:36;;;;;;;9.30;8.10;;;8.60;57.20;;;;;;5051707;28;20401;-69
2022/03/11 01:59:03;;;;;;;10.60;7.73;;;8.60;57.00;;;;;;5051607;28;20476;-68
2022/03/11 02:01:28;;;;;;;11.23;8.30;;;8.60;57.10;;;;;;5051276;28;20474;-71
2022/03/11 02:03:54;;;;;;;10.00;7.60;;;8.60;57.30;;;;;;5051394;28;20432;-69
2022/03/11 02:06:20;;;;;;;11.00;8.47;;;8.60;57.40;;;;;;5051657;28;20634;-70
2022/03/11 02:08:46;;;;;;;10.27;7.93;;;8.60;57.40;;;;;;5051573;28;20212;-70
2022/03/11 02:11:12;;;;;;;11.43;8.10;;;8.60;57.40;;;;;;5051440;28;20439;-70
2022/03/11 02:13:50;;;;;;;13.53;8.57;;;8.60;57.50;;;;;;5051498;28;20613;-70
2022/03/11 02:16:37;;;;;;;11.30;8.73;;;8.60;57.60;;;;;;5051409;28;20407;-68
2022/03/11 02:19:05;;;;;;;11.60;7.77;;;8.60;57.80;;;;;;5051116;28;20931;-70
2022/03/11 02:21:31;;;;;;;12.20;8.43;;;8.60;57.90;;;;;;5051676;28;20432;-70
2022/03/11 02:23:58;;;;;;;9.73;7.70;;;8.60;57.90;;;;;;5051347;28;20750;-69
2022/03/11 02:26:26;;;;;;;11.67;8.07;;;8.60;57.90;;;;;;5051461;28;20173;-69
2022/03/11 02:28:53;;;;;;;10.80;8.97;;;8.60;58.10;;;;;;5051440;28;20428;-70
2022/03/11 02:31:20;;;;;;;9.83;8.33;;;8.50;58.10;;;;;;5050937;28;20448;-72
2022/03/11 02:33:46;;;;;;;14.17;8.93;;;8.50;58.20;;;;;;5051066;28;20415;-69
2022/03/11 02:36:11;;;;;;;12.33;8.37;;;8.50;58.90;;;;;;5051388;28;20487;-70
2022/03/11 02:38:37;;;;;;;10.37;8.30;;;8.50;58.40;;;;;;5051274;28;20182;-69
2022/03/11 02:41:03;;;;;;;13.60;8.30;;;8.40;58.40;;;;;;5051255;28;20191;-71
2022/03/11 02:43:29;;;;;;;11.33;9.33;;;8.40;58.60;;;;;;5050897;28;20490;-70
2022/03/11 02:45:54;;;;;;;10.27;7.83;;;8.40;58.70;;;;;;5051336;28;20404;-69
2022/03/11 02:48:20;;;;;;;10.87;8.07;;;8.40;58.80;;;;;;5051172;28;20559;-69
2022/03/11 02:50:46;;;;;;;15.50;9.10;;;8.30;58.70;;;;;;5051404;28;20173;-70
2022/03/11 02:53:11;;;;;;;11.93;8.93;;;8.30;58.90;;;;;;5050883;28;20237;-70
2022/03/11 02:55:37;;;;;;;9.70;8.40;;;8.30;58.90;;;;;;5050993;28;20208;-71
2022/03/11 02:58:03;;;;;;;9.80;8.53;;;8.30;58.80;;;;;;5051350;28;20512;-69
2022/03/11 03:00:28;;;;;;;11.23;8.70;;;8.30;58.80;;;;;;5051079;28;20172;-71
2022/03/11 03:02:54;;;;;;;10.63;8.87;;;8.30;58.70;;;;;;5050667;28;21168;-69
2022/03/11 03:05:19;;;;;;;13.07;8.90;;;8.30;58.70;;;;;;5051226;28;20261;-69
2022/03/11 03:07:45;;;;;;;11.10;8.63;;;8.30;58.70;;;;;;5050710;28;20200;-70
2022/03/11 03:10:11;;;;;;;10.90;8.53;;;8.30;58.60;;;;;;5051137;28;20170;-70
2022/03/11 03:12:37;;;;;;;13.63;8.23;;;8.30;58.70;;;;;;5050815;28;20182;-69
2022/03/11 03:15:03;;;;;;;10.83;8.93;;;8.20;58.70;;;;;;5050924;28;20259;-69
2022/03/11 03:17:28;;;;;;;12.30;8.50;;;8.20;58.70;;;;;;5051007;28;20437;-69
2022/03/11 03:19:54;;;;;;;11.87;8.70;;;8.20;58.90;;;;;;5050863;28;20662;-70
2022/03/11 03:22:20;;;;;;;11.67;9.40;;;8.20;58.90;;;;;;5050720;28;20197;-69
2022/03/11 03:24:45;;;;;;;12.00;9.53;;;8.10;59.00;;;;;;5050834;28;20183;-70
2022/03/11 03:27:11;;;;;;;13.70;8.93;;;8.10;59.10;;;;;;5050897;28;20204;-69
2022/03/11 03:29:36;;;;;;;10.37;9.03;;;8.00;59.30;;;;;;5050726;28;20236;-70
2022/03/11 03:32:03;;;;;;;12.00;8.97;;;8.00;59.40;;;;;;5053148;28;20210;-70
2022/03/11 03:34:31;;;;;;;11.73;9.10;;;8.00;59.40;;;;;;5054210;28;20281;-69
2022/03/11 03:36:58;;;;;;;12.20;9.10;;;8.00;59.50;;;;;;5054323;28;20406;-69
2022/03/11 03:39:24;;;;;;;12.73;9.30;;;8.00;59.50;;;;;;5054160;28;20414;-69
2022/03/11 03:41:49;;;;;;;15.30;9.90;;;8.00;59.60;;;;;;5053849;28;20462;-69
2022/03/11 03:44:15;;;;;;;12.17;9.07;;;7.90;59.60;;;;;;5052554;28;21004;-70
2022/03/11 03:46:41;;;;;;;14.40;10.33;;;7.90;59.80;;;;;;5053972;28;20168;-69
2022/03/11 03:49:06;;;;;;;13.40;9.83;;;7.90;60.30;;;;;;5054126;28;20521;-68
2022/03/11 03:51:32;;;;;;;9.43;8.43;;;7.90;60.20;;;;;;5053688;28;20281;-69
2022/03/11 03:53:57;;;;;;;14.90;9.63;;;7.80;60.30;;;;;;5053740;28;20176;-68
2022/03/11 03:56:23;;;;;;;11.80;9.33;;;7.90;60.00;;;;;;5053815;28;20172;-69
2022/03/11 03:58:48;;;;;;;11.80;9.47;;;7.80;60.30;;;;;;5053610;28;20170;-69
2022/03/11 04:01:14;;;;;;;14.27;10.87;;;7.80;60.10;;;;;;5053675;28;20861;-70
2022/03/11 04:03:40;;;;;;;14.00;9.47;;;7.80;60.30;;;;;;5053423;28;20667;-70
2022/03/11 04:06:05;;;;;;;17.73;9.77;;;7.70;60.30;;;;;;5053679;28;20184;-70
2022/03/11 04:08:31;;;;;;;12.90;9.87;;;7.70;60.30;;;;;;5053758;28;20293;-70
2022/03/11 04:10:57;;;;;;;12.00;9.47;;;7.70;60.40;;;;;;5053452;28;20479;-70
2022/03/11 04:13:22;;;;;;;14.83;10.43;;;7.70;60.50;;;;;;5053051;28;20406;-70
2022/03/11 04:15:48;;;;;;;14.03;10.20;;;7.70;60.90;;;;;;5053609;28;20261;-70
2022/03/11 04:18:13;;;;;;;12.00;9.70;;;7.60;61.00;;;;;;5053629;28;20260;-70
2022/03/11 04:20:40;;;;;;;14.00;10.27;;;7.60;61.50;;;;;;5053527;28;20207;-70
2022/03/11 04:23:05;;;;;;;14.77;11.27;;;7.60;61.50;;;;;;5052217;28;20178;-69
2022/03/11 04:25:31;;;;;;;14.63;10.40;;;7.60;61.40;;;;;;5053538;28;20438;-70
2022/03/11 04:27:56;;;;;;;12.97;10.60;;;7.60;61.40;;;;;;5053274;28;20285;-70
2022/03/11 04:30:22;;;;;;;14.27;10.50;;;7.50;61.70;;;;;;5053256;28;20173;-70
2022/03/11 04:32:47;;;;;;;13.93;10.57;;;7.50;62.10;;;;;;5052777;28;20260;-70
2022/03/11 04:35:13;;;;;;;12.83;10.73;;;7.50;62.20;;;;;;5053479;28;20574;-71
2022/03/11 04:37:38;;;;;;;14.00;11.03;;;7.50;62.20;;;;;;5053298;28;20171;-70
2022/03/11 04:40:05;;;;;;;13.60;10.80;;;7.50;62.30;;;;;;5053121;28;20175;-68
2022/03/11 04:42:31;;;;;;;16.63;10.90;;;7.50;62.50;;;;;;5052952;28;20680;-69
2022/03/11 04:44:56;;;;;;;14.83;10.90;;;7.50;62.80;;;;;;5052460;28;20409;-68
2022/03/11 04:47:22;;;;;;;15.20;10.40;;;7.50;62.60;;;;;;5053564;28;20194;-70
2022/03/11 04:49:48;;;;;;;14.53;11.50;;;7.40;62.50;;;;;;5053653;28;20200;-70
2022/03/11 04:52:13;;;;;;;13.90;11.13;;;7.40;62.80;;;;;;5052544;28;20183;-68
2022/03/11 04:54:39;;;;;;;13.97;11.50;;;7.40;62.90;;;;;;5052818;28;20178;-69
2022/03/11 04:57:04;;;;;;;14.30;11.83;;;7.30;63.00;;;;;;5052884;28;20549;-69
2022/03/11 04:59:30;;;;;;;16.03;11.20;;;7.30;63.40;;;;;;5052804;28;20686;-69
2022/03/11 05:01:55;;;;;;;18.00;11.90;;;7.30;63.10;;;;;;5052377;28;20190;-69
2022/03/11 05:04:21;;;;;;;16.80;11.57;;;7.30;63.30;;;;;;5051558;28;20175;-69
2022/03/11 05:06:46;;;;;;;15.70;12.37;;;7.30;63.40;;;;;;5052637;28;20166;-69
2022/03/11 05:09:12;;;;;;;14.50;11.20;;;7.30;63.30;;;;;;5052626;28;20706;-70
2022/03/11 05:11:37;;;;;;;15.23;12.00;;;7.30;63.30;;;;;;5052149;28;20202;-68
2022/03/11 05:14:03;;;;;;;15.10;11.50;;;7.30;63.60;;;;;;5051224;28;20166;-69
2022/03/11 05:16:28;;;;;;;18.20;13.60;;;7.20;63.70;;;;;;5052486;28;20255;-69
2022/03/11 05:18:54;;;;;;;16.63;12.67;;;7.20;63.90;;;;;;5052541;28;20680;-69
2022/03/11 05:21:20;;;;;;;17.90;12.87;;;7.20;64.10;;;;;;5052350;28;20269;-69
2022/03/11 05:23:46;;;;;;;18.00;12.13;;;7.20;64.20;;;;;;5050834;28;20527;-69
2022/03/11 05:26:24;;;;;;;17.17;12.67;;;7.10;64.20;;;;;;5052281;28;20460;-70
2022/03/11 05:28:54;;;;;;;18.60;13.50;;;7.10;64.30;;;;;;5052319;28;20201;-70
2022/03/11 05:31:20;;;;;;;16.63;12.53;;;7.10;64.60;;;;;;5050836;28;20452;-69
2022/03/11 05:33:47;;;;;;;32.70;14.07;;;7.00;64.80;;;;;;5051993;28;20839;-70
2022/03/11 05:36:12;;;;;;;24.60;15.07;;;7.00;64.90;;;;;;5051964;28;20408;-70
2022/03/11 05:38:38;;;;;;;16.23;13.30;;;7.00;64.70;;;;;;5052066;28;20769;-70
2022/03/11 05:41:03;;;;;;;18.23;13.60;;;7.00;64.90;;;;;;5051796;28;20194;-70
2022/03/11 05:43:29;;;;;;;20.70;13.83;;;7.00;65.10;;;;;;5051882;28;20716;-69
2022/03/11 05:45:54;;;;;;;17.47;13.17;;;6.90;65.10;;;;;;5051995;28;20169;-69
2022/03/11 05:48:20;;;;;;;18.63;13.30;;;6.90;65.40;;;;;;5051815;28;20205;-69
2022/03/11 05:50:45;;;;;;;16.87;13.57;;;6.80;65.50;;;;;;5051930;28;20253;-69
2022/03/11 05:53:11;;;;;;;16.50;13.23;;;6.80;65.70;;;;;;5051059;28;20577;-69
2022/03/11 05:55:36;;;;;;;16.47;13.73;;;6.80;65.70;;;;;;5052105;28;20174;-69
2022/03/11 05:58:02;;;;;;;19.90;13.90;;;6.80;65.50;;;;;;5052031;28;20181;-69
2022/03/11 06:00:27;;;;;;;18.63;13.40;;;6.80;65.70;;;;;;5051757;28;20245;-69
2022/03/11 06:02:53;;;;;;;22.10;13.93;;;6.80;66.10;;;;;;5051221;28;20190;-69
2022/03/11 06:05:18;;;;;;;18.40;13.03;;;6.60;66.20;;;;;;5051592;28;20170;-69
2022/03/11 06:07:44;;;;;;;20.70;14.00;;;6.70;66.70;;;;;;5051766;28;20213;-69
2022/03/11 06:10:09;;;;;;;19.10;13.73;;;6.60;66.60;;;;;;5051896;28;20527;-69
2022/03/11 06:12:35;;;;;;;20.00;13.50;;;6.60;66.80;;;;;;5051129;28;20194;-69
2022/03/11 06:15:08;;;;;;;18.43;13.40;;;6.60;66.70;;;;;;5051613;28;20583;-69
2022/03/11 06:17:34;;;;;;;19.23;13.43;;;6.60;66.70;;;;;;5051554;28;20215;-69
2022/03/11 06:20:00;;;;;;;19.63;14.03;;;6.60;66.90;;;;;;5051380;28;20499;-69
2022/03/11 06:22:25;;;;;;;19.23;13.80;;;6.60;66.80;;;;;;5051087;28;20530;-69
2022/03/11 06:24:51;;;;;;;19.57;14.07;;;6.60;66.90;;;;;;5049941;28;20170;-69
2022/03/11 06:27:17;;;;;;;19.43;14.90;;;6.60;66.70;;;;;;5051240;28;20663;-69
2022/03/11 06:29:42;;;;;;;20.07;13.67;;;6.60;66.70;;;;;;5051216;28;20650;-69
2022/03/11 06:32:08;;;;;;;20.17;13.93;;;6.60;66.60;;;;;;5051004;28;20655;-69
2022/03/11 06:34:33;;;;;;;22.33;14.47;;;6.60;66.60;;;;;;5051571;28;20220;-69
2022/03/11 06:36:59;;;;;;;30.50;17.30;;;6.60;66.70;;;;;;5051281;28;20471;-69
2022/03/11 06:39:25;;;;;;;20.03;14.07;;;6.60;66.60;;;;;;5051782;28;20647;-70
2022/03/11 06:41:50;;;;;;;22.07;14.17;;;6.60;66.50;;;;;;5051480;28;20194;-70
2022/03/11 06:44:16;;;;;;;19.53;13.87;;;6.60;66.50;;;;;;5051367;28;20187;-69
2022/03/11 06:46:42;;;;;;;19.53;15.33;;;6.60;66.60;;;;;;5051564;28;20178;-69
2022/03/11 06:49:08;;;;;;;22.43;14.33;;;6.60;66.40;;;;;;5051823;28;20547;-69
2022/03/11 06:51:33;;;;;;;20.67;14.17;;;6.60;66.30;;;;;;5050325;28;20436;-69
2022/03/11 06:53:59;;;;;;;19.93;14.20;;;6.70;67.20;;;;;;5052201;28;20405;-70
2022/03/11 06:56:24;;;;;;;20.63;15.27;;;6.70;66.50;;;;;;5036427;28;20196;-70
2022/03/11 06:58:56;;;;;;;18.87;14.60;;;6.60;66.00;;;;;;5049817;28;20174;-70
2022/03/11 07:01:21;;;;;;;18.80;13.43;;;6.50;66.00;;;;;;5049201;28;20199;-70
2022/03/11 07:03:47;;;;;;;21.13;14.90;;;6.60;66.20;;;;;;5049283;28;20404;-69
2022/03/11 07:06:13;;;;;;;26.60;16.50;;;6.60;66.20;;;;;;5052471;28;20710;-70
2022/03/11 07:08:38;;;;;;;22.17;15.57;;;6.60;66.10;;;;;;5053333;28;20292;-70
2022/03/11 07:11:05;;;;;;;23.60;15.37;;;6.60;66.50;;;;;;5053426;28;20212;-70
2022/03/11 07:13:30;;;;;;;19.60;14.47;;;6.60;66.40;;;;;;5054061;28;20670;-70
2022/03/11 07:15:57;;;;;;;20.50;14.63;;;6.70;66.30;;;;;;5054423;28;20412;-70
2022/03/11 07:18:22;;;;;;;19.80;16.60;;;6.70;66.00;;;;;;5054959;28;20174;-70
2022/03/11 07:20:48;;;;;;;22.77;15.57;;;6.70;65.80;;;;;;5054763;28;20744;-70
2022/03/11 07:23:14;;;;;;;18.23;14.60;;;6.70;65.90;;;;;;5053068;28;20273;-69
2022/03/11 07:25:40;;;;;;;20.40;14.27;;;6.70;66.10;;;;;;5054669;28;20781;-69
2022/03/11 07:28:05;;;;;;;18.30;14.33;;;6.70;66.30;;;;;;5054269;28;20535;-69
2022/03/11 07:30:31;;;;;;;21.67;14.97;;;6.60;66.40;;;;;;5054684;28;20244;-70
2022/03/11 07:32:57;;;;;;;19.77;14.57;;;6.80;66.40;;;;;;5076835;22;20227;-68
2022/03/11 07:35:23;;;;;;;19.87;14.80;;;6.80;66.00;;;;;;5056332;28;20281;-70
2022/03/11 07:37:50;;;;;;;18.70;14.27;;;6.80;65.70;;;;;;5038595;28;20186;-70
2022/03/11 07:40:15;;;;;;;22.10;16.90;;;6.70;65.80;;;;;;5038357;28;20819;-69
2022/03/11 07:42:43;;;;;;;20.23;15.30;;;6.70;65.70;;;;;;5048105;28;20436;-70
2022/03/11 07:45:11;;;;;;;23.80;16.87;;;6.70;65.60;;;;;;5045357;28;20213;-68
2022/03/11 07:47:37;;;;;;;22.60;16.77;;;6.70;65.60;;;;;;5051255;28;20471;-69
2022/03/11 07:50:04;;;;;;;19.93;14.03;;;6.70;65.80;;;;;;5061307;28;20448;-68
2022/03/11 07:52:29;;;;;;;24.30;16.10;;;6.70;66.10;;;;;;5055856;28;20944;-69
2022/03/11 07:54:56;;;;;;;17.93;14.37;;;6.70;66.10;;;;;;5065987;28;20464;-71
2022/03/11 07:57:21;;;;;;;22.67;14.70;;;6.80;66.00;;;;;;5066033;28;20206;-69
2022/03/11 07:59:47;;;;;;;19.83;14.10;;;6.80;65.70;;;;;;5055988;28;20526;-68
2022/03/11 08:02:14;;;;;;;22.10;14.50;;;6.80;65.70;;;;;;5074333;28;20204;-70
2022/03/11 08:04:40;;;;;;;16.80;13.20;;;6.90;65.80;;;;;;5073776;28;20630;-69
2022/03/11 08:07:06;;;;;;;21.30;14.50;;;7.00;65.80;;;;;;5074459;28;20513;-68
2022/03/11 08:09:33;;;;;;;21.20;14.93;;;7.10;65.50;;;;;;5073019;28;20206;-68
2022/03/11 08:11:59;;;;;;;20.30;13.37;;;7.20;65.40;;;;;;5073854;28;20940;-69
2022/03/11 08:14:24;;;;;;;18.80;14.10;;;7.30;65.40;;;;;;5074356;28;20506;-68
2022/03/11 08:16:50;;;;;;;19.00;14.77;;;7.40;64.90;;;;;;5073797;28;20197;-69
2022/03/11 08:19:15;;;;;;;21.27;15.30;;;7.40;64.80;;;;;;5076998;28;20182;-68
2022/03/11 08:21:41;;;;;;;22.77;14.70;;;7.50;64.50;;;;;;5078102;28;20185;-70
2022/03/11 08:24:07;;;;;;;24.53;15.40;;;7.50;63.90;;;;;;5076690;28;20195;-71
2022/03/11 08:26:32;;;;;;;19.53;13.47;;;7.60;64.10;;;;;;5075255;28;20636;-69
2022/03/11 08:28:58;;;;;;;18.60;13.50;;;7.70;63.90;;;;;;5074642;28;20546;-70
2022/03/11 08:31:23;;;;;;;20.03;14.60;;;7.80;63.60;;;;;;5055979;28;20702;-69
2022/03/11 08:33:49;;;;;;;19.30;14.57;;;7.90;63.20;;;;;;5073600;28;20950;-69
2022/03/11 08:36:14;;;;;;;23.27;15.07;;;8.00;63.10;;;;;;5073967;28;20271;-69
2022/03/11 08:38:40;;;;;;;16.40;13.33;;;8.10;62.70;;;;;;5055999;28;20175;-70
2022/03/11 08:41:08;;;;;;;20.10;14.27;;;8.10;62.20;;;;;;5055424;28;20174;-68
2022/03/11 08:43:38;;;;;;;17.67;14.03;;;8.20;62.10;;;;;;5055057;28;20648;-69
2022/03/11 08:46:05;;;;;;;17.77;13.83;;;8.20;62.10;;;;;;5055977;28;20860;-70
2022/03/11 08:48:30;;;;;;;18.93;14.10;;;8.30;62.00;;;;;;5073142;28;20505;-68
2022/03/11 08:50:56;;;;;;;17.90;13.43;;;8.40;61.80;;;;;;5072786;28;20449;-69
2022/03/11 08:53:21;;;;;;;17.47;14.17;;;8.50;61.50;;;;;;5073166;28;20193;-69
2022/03/11 08:55:47;;;;;;;17.97;14.40;;;8.60;61.20;;;;;;5073817;28;20177;-70
2022/03/11 08:58:13;;;;;;;20.30;14.80;;;8.50;61.10;;;;;;5073090;28;20203;-71
2022/03/11 09:00:40;;;;;;;18.57;14.27;;;8.60;61.10;;;;;;5073359;28;20205;-69
2022/03/11 09:03:05;;;;;;;16.57;14.37;;;8.50;60.90;;;;;;5055142;28;20442;-70
2022/03/11 09:05:31;;;;;;;18.70;14.70;;;8.50;61.10;;;;;;5073473;28;20880;-68
2022/03/11 09:07:58;;;;;;;21.33;15.60;;;8.60;61.20;;;;;;5073244;28;20223;-70
2022/03/11 09:10:23;;;;;;;22.23;14.30;;;8.60;61.00;;;;;;5074127;28;20422;-71
2022/03/11 09:12:49;;;;;;;25.60;15.30;;;8.60;61.30;;;;;;5072798;28;20415;-70
2022/03/11 09:15:15;;;;;;;17.47;13.90;;;8.80;60.60;;;;;;5072982;28;20177;-70
2022/03/11 09:17:41;;;;;;;19.30;15.37;;;8.90;60.00;;;;;;5073455;28;20561;-70
2022/03/11 09:20:07;;;;;;;21.67;14.20;;;9.00;59.90;;;;;;5073572;28;20243;-69
2022/03/11 09:22:33;;;;;;;18.67;15.10;;;9.10;60.40;;;;;;5072888;28;20480;-71
2022/03/11 09:25:01;;;;;;;18.30;15.07;;;9.10;60.00;;;;;;5055868;28;20461;-69
2022/03/11 09:27:28;;;;;;;18.37;14.30;;;9.20;59.80;;;;;;5073052;28;20451;-70
2022/03/11 09:29:54;;;;;;;21.50;15.33;;;9.30;59.70;;;;;;5082092;28;20427;-70
2022/03/11 09:32:19;;;;;;;19.93;14.80;;;9.30;59.50;;;;;;5075188;28;20435;-68
2022/03/11 09:34:45;;;;;;;18.87;14.30;;;9.20;59.30;;;;;;5075012;28;20173;-69
2022/03/11 09:37:11;;;;;;;19.00;14.33;;;9.30;59.30;;;;;;5074021;28;20195;-69
2022/03/11 09:39:36;;;;;;;17.97;14.00;;;9.30;59.00;;;;;;5075366;28;20173;-70
2022/03/11 09:42:04;;;;;;;20.90;13.90;;;9.40;59.00;;;;;;5074090;28;20276;-68
2022/03/11 09:44:30;;;;;;;19.83;14.10;;;9.50;59.00;;;;;;5074404;28;20259;-72
2022/03/11 09:46:55;;;;;;;19.20;14.43;;;9.60;58.70;;;;;;5056564;28;20416;-70
2022/03/11 09:49:21;;;;;;;19.07;13.87;;;9.80;58.40;;;;;;5073194;28;20407;-69
2022/03/11 09:51:47;;;;;;;20.63;14.80;;;9.80;58.10;;;;;;5064448;28;20201;-69
2022/03/11 09:54:13;;;;;;;20.20;14.40;;;9.80;58.40;;;;;;5034559;28;20196;-70
2022/03/11 09:56:41;;;;;;;18.10;12.83;;;9.90;58.30;;;;;;5052084;28;20405;-71
2022/03/11 09:59:07;;;;;;;18.90;13.27;;;10.00;57.30;;;;;;5052247;28;20447;-68
2022/03/11 10:01:33;;;;;;;18.93;14.40;;;10.10;56.80;;;;;;5052482;28;20420;-68
2022/03/11 10:04:00;;;;;;;19.93;14.70;;;10.20;56.60;;;;;;5052544;28;20412;-69
2022/03/11 10:06:44;;;;;;;20.53;15.03;;;10.10;56.50;;;;;;5052421;28;20405;-69
2022/03/11 10:09:18;;;;;;;16.97;12.90;;;10.20;56.40;;;;;;5052469;28;20419;-69
2022/03/11 10:11:52;;;;;;;18.30;13.73;;;10.30;56.40;;;;;;5034182;28;20431;-70
2022/03/11 10:14:37;;;;;;;18.50;13.97;;;10.40;56.10;;;;;;5052470;28;20432;-70
2022/03/11 10:17:17;;;;;;;16.50;13.80;;;10.60;55.70;;;;;;5052496;28;20409;-69
2022/03/11 10:20:13;;;;;;;18.70;15.00;;;10.60;55.40;;;;;;5034738;28;20497;-69
2022/03/11 10:22:40;;;;;;;16.47;13.77;;;10.70;55.60;;;;;;4970690;28;20447;-71
2022/03/11 10:25:08;;;;;;;23.07;15.10;;;10.90;55.60;;;;;;4970999;28;20419;-69
2022/03/11 10:27:56;;;;;;;18.30;14.63;;;10.80;55.30;;;;;;4971769;28;20466;-68
2022/03/11 10:30:25;;;;;;;18.87;13.37;;;10.70;55.80;;;;;;4972226;28;20408;-71
2022/03/11 10:32:55;;;;;;;18.70;14.20;;;10.90;55.70;;;;;;4972010;28;20482;-69
2022/03/11 10:35:34;;;;;;;19.13;14.27;;;10.90;55.00;;;;;;4956141;28;20419;-69
2022/03/11 10:38:10;;;;;;;20.07;13.97;;;10.80;55.30;;;;;;4973946;28;20447;-69
2022/03/11 10:40:41;;;;;;;17.30;12.90;;;10.80;55.30;;;;;;4976064;28;20961;-69
2022/03/11 10:43:14;;;;;;;20.10;15.23;;;10.80;55.30;;;;;;4976356;28;20438;-69
2022/03/11 10:45:45;;;;;;;16.63;13.00;;;10.70;55.10;;;;;;4976774;28;20440;-68
2022/03/11 10:48:12;;;;;;;18.40;14.00;;;10.80;55.30;;;;;;4976058;28;20987;-68
2022/03/11 10:50:37;;;;;;;20.00;13.03;;;10.80;55.40;;;;;;4975290;28;20822;-71
2022/03/11 10:53:08;;;;;;;20.90;15.23;;;10.80;55.60;;;;;;4992718;28;20435;-68
2022/03/11 10:55:34;;;;;;;18.87;14.33;;;11.10;55.60;;;;;;4994839;28;20169;-69
2022/03/11 10:58:01;;;;;;;19.10;15.03;;;11.20;55.10;;;;;;4985032;28;20454;-69
2022/03/11 11:00:29;;;;;;;19.00;14.10;;;11.30;54.90;;;;;;5076868;28;20456;-68
2022/03/11 11:02:57;;;;;;;18.00;14.20;;;11.50;55.00;;;;;;5076057;28;20472;-67
2022/03/11 11:05:24;;;;;;;20.23;14.90;;;11.70;54.90;;;;;;5076692;28;20420;-69
2022/03/11 11:07:50;;;;;;;18.60;14.77;;;11.90;54.80;;;;;;5075764;28;20451;-69
2022/03/11 11:10:19;;;;;;;20.67;14.47;;;11.80;54.10;;;;;;5057829;28;20415;-69
2022/03/11 11:12:45;;;;;;;18.50;15.10;;;11.50;54.10;;;;;;5076719;28;20982;-69
2022/03/11 11:15:11;;;;;;;17.53;14.43;;;11.50;54.50;;;;;;5078011;28;20849;-68
2022/03/11 11:17:39;;;;;;;16.10;13.13;;;11.60;54.60;;;;;;5060326;28;20780;-69
2022/03/11 11:20:12;;;;;;;16.23;13.10;;;11.70;53.60;;;;;;5077889;28;20939;-69
2022/03/11 11:22:40;;;;;;;20.60;13.50;;;11.90;53.60;;;;;;5035047;28;20453;-69
2022/03/11 11:25:06;;;;;;;17.17;14.50;;;12.00;53.60;;;;;;5034306;28;21245;-69
2022/03/11 11:27:32;;;;;;;17.17;13.70;;;11.70;53.70;;;;;;5017856;28;20552;-68
2022/03/11 11:29:59;;;;;;;16.00;13.27;;;11.70;54.10;;;;;;5034991;28;20484;-69
2022/03/11 11:32:25;;;;;;;17.80;12.80;;;11.90;54.70;;;;;;5035677;28;20599;-69
2022/03/11 11:34:50;;;;;;;18.33;14.23;;;12.00;54.60;;;;;;5051148;28;20526;-70
2022/03/11 11:37:45;;;;;;;17.40;14.07;;;12.20;54.70;;;;;;5076325;28;20431;-70
2022/03/11 11:40:18;;;;;;;22.77;14.90;;;12.30;54.20;;;;;;4993701;28;20271;-68
2022/03/11 11:43:09;;;;;;;14.83;13.00;;;12.40;53.80;;;;;;4995032;28;20859;-69
2022/03/11 11:45:48;;;;;;;17.63;13.90;;;12.40;53.70;;;;;;4994471;28;20535;-68
2022/03/11 11:48:32;;;;;;;19.97;15.03;;;12.50;53.80;;;;;;4993674;28;20881;-69
2022/03/11 11:51:12;;;;;;;18.43;14.30;;;12.40;53.20;;;;;;4989926;28;20494;-69
2022/03/11 11:53:40;;;;;;;17.50;13.43;;;12.30;53.40;;;;;;4972387;28;20439;-71
2022/03/11 11:56:26;;;;;;;16.47;12.60;;;12.40;53.80;;;;;;4973099;28;21261;-70
2022/03/11 11:58:51;;;;;;;17.40;14.30;;;12.50;53.70;;;;;;4973089;28;20528;-69
2022/03/11 12:01:38;;;;;;;18.40;12.93;;;12.60;53.80;;;;;;4974190;28;20885;-69
2022/03/11 12:04:23;;;;;;;14.77;12.70;;;12.70;53.70;;;;;;4979982;28;20335;-68
2022/03/11 12:06:56;;;;;;;17.33;13.67;;;12.70;53.80;;;;;;4991575;28;20929;-68
2022/03/11 12:09:42;;;;;;;21.53;13.30;;;12.60;53.90;;;;;;4992067;28;20484;-70
2022/03/11 12:12:30;;;;;;;23.53;12.80;;;12.60;54.20;;;;;;4991348;28;20450;-67
2022/03/11 12:15:00;;;;;;;14.87;13.00;;;12.60;54.30;;;;;;4991434;28;20443;-70
2022/03/11 12:17:42;;;;;;;17.30;13.17;;;12.60;54.30;;;;;;5059644;28;20440;-69
2022/03/11 12:20:31;;;;;;;15.20;12.57;;;12.60;54.50;;;;;;5055861;28;20446;-68
2022/03/11 12:23:03;;;;;;;15.37;12.73;;;12.60;54.30;;;;;;5072925;28;20562;-68
2022/03/11 12:25:32;;;;;;;17.43;12.70;;;12.50;54.40;;;;;;5073864;28;20424;-69
2022/03/11 12:27:59;;;;;;;15.47;13.10;;;12.50;54.50;;;;;;5055269;28;20487;-68
2022/03/11 12:30:33;;;;;;;17.57;13.57;;;12.50;54.70;;;;;;5075182;28;20430;-69
2022/03/11 12:33:04;;;;;;;17.30;13.10;;;12.50;54.70;;;;;;5073567;28;20983;-70
2022/03/11 12:35:30;;;;;;;16.77;13.57;;;12.50;54.70;;;;;;5073649;28;20442;-68
2022/03/11 12:37:56;;;;;;;19.80;13.20;;;12.50;55.00;;;;;;5073858;28;20997;-68
2022/03/11 12:40:23;;;;;;;16.47;12.20;;;12.50;55.40;;;;;;5074405;28;20209;-68